Time;durP1;ratioP1;P1;durP2;ratioP2;P2;SDS_P1;SDS_P2;PMS_P1;PMS_P2;Temp;Humidity;BMP_temperature;BMP_pressure;BME280_temperature;BME280_humidity;BME280_pressure;Samples;Min_cycle;Max_cycle;Signal;HPM_P1;HPM_P2
2022/09/29 00:01:24;;;;;;;7.77;4.80;;;;;;;10.37;97.42;97371.91;2291807;78;21310;-84
2022/09/29 00:04:24;;;;;;;5.67;4.53;;;;;;;10.35;97.35;97379.75;2291802;78;20943;-85
2022/09/29 00:07:25;;;;;;;5.75;4.25;;;;;;;10.34;97.34;97392.80;2291815;78;20991;-86
2022/09/29 00:10:25;;;;;;;6.27;4.50;;;;;;;10.35;97.48;97385.41;2291610;78;21015;-84
2022/09/29 00:13:25;;;;;;;5.43;4.17;;;;;;;10.36;97.21;97378.00;2292150;78;21316;-85
2022/09/29 00:16:26;;;;;;;5.33;4.23;;;;;;;10.35;96.87;97369.75;2292012;78;20987;-85
2022/09/29 00:19:27;;;;;;;5.30;4.53;;;;;;;10.35;96.84;97369.75;2291770;78;20972;-85
2022/09/29 00:22:27;;;;;;;5.93;4.50;;;;;;;10.34;96.84;97370.20;2291875;78;21300;-85
2022/09/29 00:25:27;;;;;;;5.83;4.23;;;;;;;10.31;96.19;97383.27;2292002;78;21348;-86
2022/09/29 00:28:28;;;;;;;5.77;4.63;;;;;;;10.27;96.23;97391.14;2291520;78;20956;-85
2022/09/29 00:31:28;;;;;;;6.97;4.43;;;;;;;10.26;96.15;97389.41;2291482;78;21347;-85
2022/09/29 00:34:28;;;;;;;8.40;4.87;;;;;;;10.24;95.91;97392.47;2291634;78;20932;-85
2022/09/29 00:37:29;;;;;;;6.27;4.90;;;;;;;10.22;95.95;97408.14;2291927;78;20924;-84
2022/09/29 00:40:29;;;;;;;9.23;6.10;;;;;;;10.17;95.86;97416.41;2291589;78;20955;-84
2022/09/29 00:43:30;;;;;;;10.17;6.57;;;;;;;10.12;96.14;97421.66;2291555;78;20939;-84
2022/09/29 00:46:30;;;;;;;7.70;6.90;;;;;;;10.11;96.35;97423.84;2291728;78;20964;-85
2022/09/29 00:49:30;;;;;;;8.80;6.47;;;;;;;10.13;96.59;97422.09;2291570;78;20936;-86
2022/09/29 00:52:31;;;;;;;9.43;6.60;;;;;;;10.10;96.23;97429.94;2291722;78;20940;-85
2022/09/29 00:55:31;;;;;;;9.30;7.90;;;;;;;10.05;96.16;97425.64;2291428;78;21288;-83
2022/09/29 00:58:32;;;;;;;10.70;7.33;;;;;;;10.01;96.11;97423.50;2291210;78;20905;-85
2022/09/29 01:01:32;;;;;;;10.93;6.63;;;;;;;10.02;96.35;97416.11;2291349;78;20968;-83
2022/09/29 01:04:32;;;;;;;11.50;7.30;;;;;;;10.08;96.56;97417.36;2291368;78;20944;-85
2022/09/29 01:07:33;;;;;;;9.70;7.60;;;;;;;10.08;95.98;97404.32;2291120;78;20996;-84
2022/09/29 01:10:33;;;;;;;9.53;7.43;;;;;;;10.07;95.82;97412.16;2285345;78;20958;-84
2022/09/29 01:13:34;;;;;;;9.37;6.43;;;;;;;10.03;95.67;97416.53;2282607;78;20931;-84
2022/09/29 01:16:34;;;;;;;9.03;6.40;;;;;;;10.02;95.72;97408.29;2282682;78;20906;-84
2022/09/29 01:19:34;;;;;;;9.60;7.43;;;;;;;10.01;95.53;97410.91;2282320;78;20945;-85
2022/09/29 01:22:35;;;;;;;9.13;8.13;;;;;;;10.01;95.56;97416.98;2282768;78;20906;-84
2022/09/29 01:25:35;;;;;;;10.57;7.07;;;;;;;10.01;96.08;97418.29;2282215;78;20942;-84
2022/09/29 01:28:36;;;;;;;9.70;7.47;;;;;;;10.00;96.21;97428.73;2281737;78;20969;-82
2022/09/29 01:31:36;;;;;;;9.00;7.00;;;;;;;9.97;96.25;97445.26;2282430;78;20946;-86
2022/09/29 01:34:37;;;;;;;9.93;6.40;;;;;;;9.98;96.51;97432.66;2283515;78;20910;-85
2022/09/29 01:37:38;;;;;;;8.07;6.27;;;;;;;9.99;96.17;97441.34;2282815;78;20939;-82
2022/09/29 01:40:38;;;;;;;15.63;7.63;;;;;;;9.98;96.46;97452.20;2281978;78;20985;-85
2022/09/29 01:43:38;;;;;;;10.17;7.60;;;;;;;9.98;96.03;97460.46;2282618;78;20915;-84
2022/09/29 01:46:38;;;;;;;13.43;9.30;;;;;;;9.97;96.13;97472.63;2281495;78;20950;-84
2022/09/29 01:49:39;;;;;;;12.50;9.30;;;;;;;9.99;96.38;97467.41;2281493;78;21368;-84
2022/09/29 01:52:39;;;;;;;9.83;7.90;;;;;;;9.99;96.02;97466.10;2282147;77;20914;-83
2022/09/29 01:55:39;;;;;;;6.57;5.93;;;;;;;9.94;96.18;97460.92;2281814;78;20927;-84
2022/09/29 01:58:40;;;;;;;7.57;5.97;;;;;;;9.93;96.11;97464.84;2281506;78;20981;-84
2022/09/29 02:01:40;;;;;;;8.20;6.40;;;;;;;9.93;96.11;97464.84;2281328;78;20899;-84
2022/09/29 02:04:41;;;;;;;7.10;6.03;;;;;;;9.91;96.33;97466.16;2282293;78;20934;-84
2022/09/29 02:07:41;;;;;;;8.90;5.87;;;;;;;9.93;96.53;97456.59;2281868;78;20958;-84
2022/09/29 02:10:41;;;;;;;10.13;6.37;;;;;;;9.92;96.08;97457.47;2290302;77;20988;-84
2022/09/29 02:13:42;;;;;;;8.80;5.83;;;;;;;9.88;95.95;97460.53;2291164;78;20888;-86
2022/09/29 02:16:42;;;;;;;11.67;5.90;;;;;;;9.89;96.02;97470.08;2291246;78;20936;-84
2022/09/29 02:19:43;;;;;;;8.83;5.97;;;;;;;9.89;96.13;97477.03;2291750;78;20908;-85
2022/09/29 02:22:43;;;;;;;7.10;6.00;;;;;;;9.88;95.99;97485.73;2291892;78;20928;-84
2022/09/29 02:25:44;;;;;;;10.53;6.93;;;;;;;9.86;95.77;97484.88;2291753;78;21335;-84
2022/09/29 02:28:44;;;;;;;9.40;6.83;;;;;;;9.83;95.45;97496.62;2291586;78;20991;-84
2022/09/29 02:31:44;;;;;;;8.87;7.27;;;;;;;9.83;95.45;97496.62;2291672;78;20893;-84
2022/09/29 02:34:45;;;;;;;12.67;7.23;;;;;;;9.77;95.16;97495.36;2291490;78;20944;-84
2022/09/29 02:37:46;;;;;;;12.27;7.17;;;;;;;9.74;95.42;97494.08;2291691;78;21435;-83
2022/09/29 02:40:46;;;;;;;10.47;7.80;;;;;;;9.73;95.34;97496.26;2291243;78;21316;-84
2022/09/29 02:43:46;;;;;;;9.07;7.33;;;;;;;9.73;95.47;97491.05;2291335;78;20896;-83
2022/09/29 02:46:46;;;;;;;12.87;8.40;;;;;;;9.72;95.40;97491.48;2291533;78;20940;-84
2022/09/29 02:49:47;;;;;;;13.87;8.63;;;;;;;9.73;95.04;97485.84;2291093;78;21356;-84
2022/09/29 02:52:47;;;;;;;26.50;17.70;;;;;;;9.70;95.00;97484.55;2291263;78;20987;-83
2022/09/29 02:55:48;;;;;;;12.87;9.33;;;;;;;9.72;95.51;97483.67;2291508;78;20897;-84
2022/09/29 02:58:48;;;;;;;12.27;7.50;;;;;;;9.76;95.55;97487.98;2291258;78;21372;-82
2022/09/29 03:01:49;;;;;;;11.23;7.07;;;;;;;9.75;94.99;97494.51;2291135;78;20922;-84
2022/09/29 03:04:49;;;;;;;9.33;6.63;;;;;;;9.69;94.86;97495.41;2291393;78;20959;-84
2022/09/29 03:07:49;;;;;;;9.20;7.37;;;;;;;9.69;95.20;97494.55;2291231;78;20948;-85
2022/09/29 03:10:50;;;;;;;8.60;7.13;;;;;;;9.65;95.21;97496.74;2282628;78;20962;-83
2022/09/29 03:13:50;;;;;;;8.63;7.07;;;;;;;9.62;95.01;97497.62;2281415;77;20918;-83
2022/09/29 03:16:50;;;;;;;11.13;6.90;;;;;;;9.57;94.98;97495.48;2280808;78;20973;-84
2022/09/29 03:19:51;;;;;;;8.77;7.50;;;;;;;9.57;95.19;97500.70;2281142;78;20972;-84
2022/09/29 03:22:51;;;;;;;11.87;9.00;;;;;;;9.56;95.08;97500.27;2280261;78;20960;-83
2022/09/29 03:25:52;;;;;;;10.97;9.70;;;;;;;9.54;94.94;97507.23;2280853;78;20954;-83
2022/09/29 03:28:52;;;;;;;9.47;7.67;;;;;;;9.54;95.34;97504.62;2281035;78;20922;-82
2022/09/29 03:31:52;;;;;;;20.87;11.03;;;;;;;9.52;95.20;97505.90;2280759;78;21041;-84
2022/09/29 03:34:53;;;;;;;12.57;8.30;;;;;;;9.51;95.42;97501.56;2281427;78;21368;-84
2022/09/29 03:37:53;;;;;;;8.80;7.73;;;;;;;9.51;95.45;97509.81;2280610;78;20918;-84
2022/09/29 03:40:54;;;;;;;8.77;7.57;;;;;;;9.50;95.36;97502.88;2279427;77;20958;-82
2022/09/29 03:43:54;;;;;;;9.30;7.63;;;;;;;9.51;95.27;97495.05;2280301;78;21330;-84
2022/09/29 03:46:54;;;;;;;10.37;7.50;;;;;;;9.50;95.43;97501.13;2281575;78;20937;-86
2022/09/29 03:49:55;;;;;;;11.83;7.70;;;;;;;9.52;95.32;97514.15;2280360;78;20914;-82
2022/09/29 03:52:55;;;;;;;11.90;7.47;;;;;;;9.49;95.24;97510.26;2280101;77;21409;-85
2022/09/29 03:55:56;;;;;;;11.03;7.73;;;;;;;9.48;95.09;97506.79;2279836;78;21350;-84
2022/09/29 03:58:56;;;;;;;12.57;6.97;;;;;;;9.49;95.16;97503.75;2280897;78;20989;-83
2022/09/29 04:01:56;;;;;;;11.13;7.27;;;;;;;9.50;95.10;97492.45;2280882;78;21338;-84
2022/09/29 04:04:57;;;;;;;9.73;6.87;;;;;;;9.44;94.98;97490.75;2279949;78;20945;-83
2022/09/29 04:07:57;;;;;;;12.97;7.57;;;;;;;9.43;95.28;97490.75;2279660;78;20974;-81
2022/09/29 04:10:58;;;;;;;8.73;7.27;;;;;;;9.54;97.07;97481.17;2287569;77;21425;-81
2022/09/29 04:13:58;;;;;;;11.57;6.97;;;;;;;9.56;95.39;97479.42;2290380;78;20916;-82
2022/09/29 04:16:58;;;;;;;12.23;6.90;;;;;;;9.47;95.20;97480.31;2289975;78;20884;-83
2022/09/29 04:19:59;;;;;;;18.00;8.47;;;;;;;9.42;95.25;97479.47;2290173;78;20940;-84
2022/09/29 04:23:03;;;;;;;12.40;7.40;;;;;;;9.38;95.23;97503.80;2289226;78;20911;-82
2022/09/29 04:26:01;;;;;;;14.43;7.83;;;;;;;9.36;95.73;97507.28;2288227;78;20912;-84
2022/09/29 04:29:00;;;;;;;14.97;8.20;;;;;;;9.33;96.05;97521.19;2288987;78;20947;-84
2022/09/29 04:32:00;;;;;;;11.70;8.40;;;;;;;9.26;96.00;97529.46;2290661;78;20872;-84
2022/09/29 04:35:01;;;;;;;11.27;8.53;;;;;;;9.23;95.79;97525.56;2290323;78;21349;-84
2022/09/29 04:38:01;;;;;;;11.93;9.57;;;;;;;9.25;96.04;97525.13;2290658;78;20947;-83
2022/09/29 04:41:02;;;;;;;13.20;8.43;;;;;;;9.24;95.93;97525.13;2291348;78;21049;-83
2022/09/29 04:44:02;;;;;;;15.70;8.70;;;;;;;9.27;96.64;97530.33;2291883;78;20936;-84
2022/09/29 04:47:03;;;;;;;17.60;9.27;;;;;;;9.28;96.17;97533.80;2290765;78;20909;-83
2022/09/29 04:50:03;;;;;;;13.90;8.47;;;;;;;9.26;96.04;97534.67;2289863;78;21602;-83
2022/09/29 04:53:03;;;;;;;11.37;8.50;;;;;;;9.28;96.49;97535.96;2288712;78;20985;-81
2022/09/29 04:56:04;;;;;;;13.83;9.37;;;;;;;9.31;96.46;97537.25;2288977;78;20924;-82
2022/09/29 04:59:04;;;;;;;27.17;18.57;;;;;;;9.31;96.23;97541.59;2289197;78;21299;-82
2022/09/29 05:02:05;;;;;;;14.60;11.17;;;;;;;9.28;96.06;97538.56;2288767;78;21636;-83
2022/09/29 05:05:08;;;;;;;14.43;11.70;;;;;;;9.27;96.08;97543.34;2289581;78;20908;-82
2022/09/29 05:08:08;;;;;;;14.67;11.13;;;;;;;9.33;96.31;97546.36;2290318;78;20951;-83
2022/09/29 05:11:09;;;;;;;17.70;11.10;;;;;;;9.37;96.01;97550.25;2257584;77;21051;-84
2022/09/29 05:14:18;;;;;;;11.23;9.57;;;;;;;9.42;96.07;97558.05;2249533;78;20967;-83
2022/09/29 05:17:18;;;;;;;13.40;10.10;;;;;;;9.48;95.94;97559.31;2248574;78;20868;-83
2022/09/29 05:20:19;;;;;;;15.37;12.07;;;;;;;9.57;95.65;97560.61;2246405;79;21371;-81
2022/09/29 05:23:19;;;;;;;13.17;11.87;;;;;;;9.65;95.47;97562.75;2246008;79;20935;-81
2022/09/29 05:26:19;;;;;;;14.87;10.97;;;;;;;9.69;95.20;97561.86;2246018;78;20892;-82
2022/09/29 05:29:20;;;;;;;15.73;11.63;;;;;;;9.78;94.98;97561.80;2247088;78;21345;-83
2022/09/29 05:32:20;;;;;;;14.57;9.90;;;;;;;9.78;94.98;97561.80;2246258;78;21319;-81
2022/09/29 05:35:21;;;;;;;13.83;8.70;;;;;;;9.83;94.61;97566.99;2247662;78;20884;-83
2022/09/29 05:38:22;;;;;;;12.00;8.37;;;;;;;9.89;94.73;97573.47;2247268;78;20940;-81
2022/09/29 05:41:22;;;;;;;57.47;42.37;;;;;;;9.93;94.35;97573.88;2246090;79;21402;-84
2022/09/29 05:44:22;;;;;;;11.80;10.10;;;;;;;9.98;94.51;97573.86;2247403;78;20947;-82
2022/09/29 05:47:23;;;;;;;10.10;8.17;;;;;;;10.05;94.38;97578.16;2246997;78;20962;-81
2022/09/29 05:50:23;;;;;;;10.53;7.17;;;;;;;10.08;93.84;97579.00;2246650;78;21296;-80
2022/09/29 05:53:23;;;;;;;12.63;7.43;;;;;;;10.07;93.24;97582.48;2246662;79;20943;-78
2022/09/29 05:56:24;;;;;;;9.87;8.07;;;;;;;10.10;93.17;97580.30;2246939;78;20880;-83
2022/09/29 05:59:24;;;;;;;11.77;9.13;;;;;;;10.09;92.89;97580.73;2247136;78;20904;-81
2022/09/29 06:02:25;;;;;;;10.50;9.33;;;;;;;10.08;92.99;97581.61;2248492;78;21223;-81
2022/09/29 06:05:25;;;;;;;12.07;9.33;;;;;;;10.14;92.87;97585.48;2247899;78;20974;-83
2022/09/29 06:08:25;;;;;;;11.80;8.13;;;;;;;10.19;92.48;97581.54;2247496;78;21403;-83
2022/09/29 06:11:30;;;;;;;12.07;7.43;;;;;;;10.27;92.55;97582.82;2273268;77;20985;-81
2022/09/29 06:14:29;;;;;;;13.77;8.20;;;;;;;10.37;92.32;97590.57;2279087;78;20928;-82
2022/09/29 06:17:31;;;;;;;11.17;7.67;;;;;;;10.44;91.94;97587.52;2258100;78;20930;-84
2022/09/29 06:20:37;;;;;;;9.47;7.03;;;;;;;10.43;90.95;97593.61;2279886;78;20977;-82
2022/09/29 06:23:32;;;;;;;14.37;7.80;;;;;;;10.39;90.54;97591.86;2278783;77;20915;-80
2022/09/29 06:26:33;;;;;;;10.23;7.57;;;;;;;10.37;90.66;97594.48;2280035;78;21006;-82
2022/09/29 06:29:33;;;;;;;10.00;8.03;;;;;;;10.48;90.50;97597.05;2279159;78;21651;-83
2022/09/29 06:32:34;;;;;;;9.20;7.97;;;;;;;10.52;90.11;97594.84;2279053;78;20883;-82
2022/09/29 06:38:53;;;;;;;8.40;7.33;;;;;;;10.45;89.71;97598.38;2279214;78;21314;-82
2022/09/29 06:41:55;;;;;;;9.60;7.27;;;;;;;10.38;88.93;97599.27;2278330;78;20992;-82
2022/09/29 06:44:53;;;;;;;8.97;7.20;;;;;;;10.38;88.69;97601.44;2278069;78;20917;-81
2022/09/29 06:47:54;;;;;;;11.53;9.30;;;;;;;10.41;89.00;97596.66;2278477;78;21678;-81
2022/09/29 06:50:54;;;;;;;8.63;6.57;;;;;;;10.46;89.35;97597.50;2279224;78;20933;-83
2022/09/29 06:53:55;;;;;;;9.73;7.80;;;;;;;10.51;88.72;97587.89;2278653;78;20875;-83
2022/09/29 06:56:55;;;;;;;9.07;7.23;;;;;;;10.52;87.78;97587.88;2279675;78;20902;-82
2022/09/29 06:59:55;;;;;;;7.77;6.97;;;;;;;10.55;88.02;97591.34;2279808;78;21380;-82
2022/09/29 07:02:56;;;;;;;10.20;7.87;;;;;;;10.54;87.54;97595.69;2278600;78;20997;-82
2022/09/29 07:05:56;;;;;;;13.80;9.43;;;;;;;10.55;86.39;97600.03;2278787;78;21324;-82
2022/09/29 07:08:57;;;;;;;14.50;9.60;;;;;;;10.53;86.08;97600.48;2278124;77;20980;-82
2022/09/29 07:11:57;;;;;;;15.27;10.53;;;;;;;10.42;85.84;97611.00;2286293;78;21019;-81
2022/09/29 07:14:58;;;;;;;15.23;10.70;;;;;;;10.35;85.96;97611.02;2288449;78;21396;-82
2022/09/29 07:17:59;;;;;;;12.73;8.63;;;;;;;10.30;86.81;97618.88;2288918;78;20916;-81
2022/09/29 07:20:58;;;;;;;10.20;7.47;;;;;;;10.29;86.81;97628.02;2288571;78;20920;-81
2022/09/29 07:23:59;;;;;;;11.07;8.33;;;;;;;10.31;86.50;97621.91;2288614;78;21328;-81
2022/09/29 07:26:59;;;;;;;10.17;7.60;;;;;;;10.32;86.76;97624.95;2288241;78;21007;-81
2022/09/29 07:30:00;;;;;;;9.17;6.53;;;;;;;10.36;86.23;97617.53;2288555;78;20920;-81
2022/09/29 07:33:00;;;;;;;8.53;7.40;;;;;;;10.36;85.49;97616.23;2288929;78;20920;-81
2022/09/29 07:36:00;;;;;;;8.30;7.10;;;;;;;10.44;86.04;97609.25;2290463;78;21331;-82
2022/09/29 07:39:01;;;;;;;8.33;7.13;;;;;;;10.50;85.61;97617.03;2289846;78;20943;-81
2022/09/29 07:42:02;;;;;;;9.47;7.37;;;;;;;10.55;84.95;97613.52;2288830;78;20955;-82
2022/09/29 07:45:02;;;;;;;10.28;7.83;;;;;;;10.54;84.09;97623.09;2288390;78;20947;-82
2022/09/29 07:48:02;;;;;;;9.40;7.23;;;;;;;10.51;83.90;97631.80;2288656;78;21615;-81
2022/09/29 07:51:03;;;;;;;7.97;7.17;;;;;;;10.59;84.66;97634.36;2289342;78;20939;-85
2022/09/29 07:54:03;;;;;;;8.57;6.43;;;;;;;10.69;83.65;97638.63;2289256;78;20944;-83
2022/09/29 07:57:03;;;;;;;11.30;7.67;;;;;;;10.75;83.50;97639.88;2288837;78;20908;-82
2022/09/29 08:00:04;;;;;;;9.00;7.65;;;;;;;10.84;83.19;97646.33;2289174;78;21282;-81
2022/09/29 08:03:05;;;;;;;9.68;8.08;;;;;;;11.05;83.75;97644.41;2289074;78;20920;-80
2022/09/29 08:06:05;;;;;;;14.15;7.37;;;;;;;11.27;82.97;97641.16;2288760;78;20881;-82
2022/09/29 08:09:06;;;;;;;8.58;7.55;;;;;;;11.45;82.44;97639.25;2289189;78;21288;-83
2022/09/29 08:12:09;;;;;;;8.33;7.08;;;;;;;11.72;82.11;97637.20;2289066;78;20975;-82
2022/09/29 08:15:08;;;;;;;11.55;8.10;;;;;;;11.98;81.28;97642.14;2267058;78;20928;-81
2022/09/29 08:18:09;;;;;;;13.45;6.55;;;;;;;12.10;80.74;97653.31;2288659;78;20924;-80
2022/09/29 08:21:09;;;;;;;8.00;5.83;;;;;;;12.13;78.47;97652.41;2288831;78;21311;-81
2022/09/29 08:24:10;;;;;;;11.10;6.10;;;;;;;12.11;78.52;97649.81;2288496;78;21608;-82
2022/09/29 08:27:11;;;;;;;7.20;6.25;;;;;;;12.00;77.37;97651.70;2289300;78;20955;-80
2022/09/29 08:30:10;;;;;;;7.25;5.72;;;;;;;12.00;78.86;97658.68;2288614;78;21047;-81
2022/09/29 08:33:13;;;;;;;8.40;6.83;;;;;;;11.96;77.81;97659.16;2288042;78;20919;-81
2022/09/29 08:36:15;;;;;;;11.35;6.67;;;;;;;11.97;77.40;97666.13;2287959;78;20966;-81
2022/09/29 08:39:15;;;;;;;6.63;6.03;;;;;;;11.99;77.11;97672.20;2288383;78;20951;-80
2022/09/29 08:42:15;;;;;;;9.90;6.45;;;;;;;12.01;76.40;97670.88;2288045;78;20960;-81
2022/09/29 08:45:16;;;;;;;5.03;4.62;;;;;;;12.15;77.52;97662.88;2288005;78;21352;-81
2022/09/29 08:48:16;;;;;;;5.70;4.67;;;;;;;12.26;76.39;97666.22;2289351;78;21434;-82
2022/09/29 08:51:20;;;;;;;6.83;4.75;;;;;;;12.29;74.90;97676.20;2289084;78;20920;-82
2022/09/29 08:54:19;;;;;;;5.22;4.47;;;;;;;12.21;74.10;97675.87;2288708;78;20916;-82
2022/09/29 08:57:20;;;;;;;4.45;4.05;;;;;;;12.10;74.31;97678.16;2287821;78;21029;-84
2022/09/29 09:00:20;;;;;;;5.12;4.58;;;;;;;12.04;74.02;97682.60;2287640;78;20957;-82
2022/09/29 09:03:21;;;;;;;7.85;5.45;;;;;;;12.03;74.24;97688.27;2288022;78;20923;-81
2022/09/29 09:06:22;;;;;;;7.33;5.37;;;;;;;12.07;74.85;97694.33;2287615;78;21320;-81
2022/09/29 09:09:21;;;;;;;7.55;5.00;;;;;;;12.07;74.33;97691.72;2287448;78;20975;-82
2022/09/29 09:12:23;;;;;;;7.92;4.53;;;;;;;12.29;75.79;97697.58;2278163;77;20989;-81
2022/09/29 09:15:23;;;;;;;8.23;5.65;;;;;;;12.41;74.38;97694.79;2277953;78;20992;-81
2022/09/29 09:18:24;;;;;;;7.70;5.28;;;;;;;12.72;74.92;97693.46;2278785;78;20914;-81
2022/09/29 09:21:24;;;;;;;11.00;5.55;;;;;;;12.83;73.99;97695.92;2279151;78;20973;-84
2022/09/29 09:24:25;;;;;;;7.03;5.03;;;;;;;12.97;73.84;97694.39;2279809;78;21541;-80
2022/09/29 09:27:25;;;;;;;5.67;5.10;;;;;;;13.15;72.80;97699.81;2279177;78;20933;-82
2022/09/29 09:30:25;;;;;;;5.97;5.25;;;;;;;13.08;71.26;97702.98;2278789;77;20906;-81
2022/09/29 09:33:26;;;;;;;5.90;5.30;;;;;;;13.05;71.60;97710.88;2278906;78;20929;-80
2022/09/29 09:36:26;;;;;;;6.05;5.03;;;;;;;13.07;70.55;97711.73;2279271;78;20922;-80
2022/09/29 09:39:27;;;;;;;7.15;5.85;;;;;;;12.98;71.40;97714.02;2279527;78;21350;-83
2022/09/29 09:42:27;;;;;;;7.42;5.58;;;;;;;13.01;71.50;97715.30;2278496;78;21388;-84
2022/09/29 09:45:28;;;;;;;7.53;6.12;;;;;;;13.12;72.00;97717.75;2279363;78;20926;-82
2022/09/29 09:48:31;;;;;;;5.97;5.30;;;;;;;13.22;71.88;97719.81;2279439;78;20949;-81
2022/09/29 09:51:31;;;;;;;6.33;5.70;;;;;;;13.32;72.05;97721.39;2279297;78;20942;-80
2022/09/29 09:54:32;;;;;;;11.38;5.92;;;;;;;13.49;71.03;97720.66;2278755;77;21278;-82
2022/09/29 09:57:32;;;;;;;7.10;5.62;;;;;;;13.57;71.03;97717.89;2279123;78;20984;-82
2022/09/29 10:00:33;;;;;;;6.37;5.30;;;;;;;13.55;70.15;97724.47;2279743;78;20977;-81
2022/09/29 10:03:33;;;;;;;5.83;5.33;;;;;;;13.54;70.89;97715.33;2279440;78;21295;-83
2022/09/29 10:06:33;;;;;;;11.60;5.72;;;;;;;13.66;70.33;97713.34;2279718;78;20922;-83
2022/09/29 10:09:34;;;;;;;80.03;8.43;;;;;;;13.78;70.07;97712.25;2279118;78;21440;-83
2022/09/29 10:12:34;;;;;;;9.23;5.00;;;;;;;13.90;69.89;97715.13;2286851;78;20983;-83
2022/09/29 10:15:35;;;;;;;14.05;4.90;;;;;;;13.98;69.35;97720.64;2288738;78;20892;-83
2022/09/29 10:18:35;;;;;;;4.70;4.20;;;;;;;14.08;69.05;97723.08;2289226;78;20943;-83
2022/09/29 10:21:36;;;;;;;4.72;3.90;;;;;;;14.05;68.70;97723.14;2288723;78;21439;-82
2022/09/29 10:24:36;;;;;;;5.42;3.95;;;;;;;14.11;68.80;97723.02;2289111;78;20888;-82
2022/09/29 10:27:36;;;;;;;7.22;4.33;;;;;;;14.12;67.40;97724.74;2289730;78;21003;-81
2022/09/29 10:30:37;;;;;;;4.62;4.17;;;;;;;13.94;68.00;97724.66;2289371;78;21410;-82
2022/09/29 10:33:37;;;;;;;17.48;4.80;;;;;;;13.90;68.08;97728.23;2288863;78;20893;-83
2022/09/29 10:36:38;;;;;;;4.75;4.20;;;;;;;13.82;68.27;97728.34;2289066;78;20916;-82
2022/09/29 10:39:38;;;;;;;8.15;4.65;;;;;;;13.68;67.67;97734.30;2289086;78;20955;-82
2022/09/29 10:42:38;;;;;;;4.92;4.17;;;;;;;13.60;67.63;97740.13;2288696;78;20956;-84
2022/09/29 10:45:39;;;;;;;9.03;4.28;;;;;;;13.50;67.08;97738.11;2288587;78;20987;-83
2022/09/29 10:48:39;;;;;;;4.87;3.75;;;;;;;13.52;67.31;97734.15;2288289;78;20944;-81
2022/09/29 10:51:40;;;;;;;6.30;3.77;;;;;;;13.63;68.03;97733.52;2287715;78;21611;-82
2022/09/29 10:54:40;;;;;;;5.65;3.70;;;;;;;13.69;66.95;97736.89;2288565;78;20916;-81
2022/09/29 10:57:40;;;;;;;5.65;5.05;;;;;;;13.74;66.92;97735.50;2287414;78;20936;-83
2022/09/29 11:00:41;;;;;;;12.37;6.08;;;;;;;13.96;66.80;97733.36;2287565;78;20927;-82
2022/09/29 11:03:41;;;;;;;14.05;5.83;;;;;;;14.26;67.42;97734.52;2288287;78;20943;-80
2022/09/29 11:06:42;;;;;;;15.50;13.70;;;;;;;14.52;66.71;97738.80;2287811;78;21410;-81
2022/09/29 11:09:42;;;;;;;12.58;9.78;;;;;;;14.72;66.50;97741.00;2288026;78;20982;-80
2022/09/29 11:12:44;;;;;;;12.70;7.67;;;;;;;14.99;65.92;97738.22;2279021;77;21025;-81
2022/09/29 11:15:43;;;;;;;5.92;5.03;;;;;;;15.28;64.82;97741.47;2278228;78;21341;-81
2022/09/29 11:18:43;;;;;;;5.58;5.08;;;;;;;15.64;63.25;97738.43;2277994;78;20914;-82
2022/09/29 11:21:44;;;;;;;5.35;4.30;;;;;;;15.88;62.64;97734.28;2277570;77;20925;-82
2022/09/29 11:24:44;;;;;;;7.15;3.77;;;;;;;16.14;62.43;97734.89;2277933;78;20949;-80
2022/09/29 11:27:45;;;;;;;4.05;3.65;;;;;;;16.44;61.22;97731.83;2278910;78;20926;-81
2022/09/29 11:30:45;;;;;;;3.90;3.60;;;;;;;16.77;59.50;97735.30;2278766;78;20926;-83
2022/09/29 11:33:45;;;;;;;6.97;4.10;;;;;;;16.81;59.98;97741.75;2278290;78;20958;-79
2022/09/29 11:36:47;;;;;;;4.08;3.77;;;;;;;16.91;60.16;97742.33;2277689;78;20910;-80
2022/09/29 11:39:47;;;;;;;5.22;3.65;;;;;;;17.00;59.20;97739.41;2278850;77;21342;-80
2022/09/29 11:42:47;;;;;;;7.42;3.83;;;;;;;16.88;59.41;97739.33;2278410;77;20969;-81
2022/09/29 11:45:47;;;;;;;13.48;4.15;;;;;;;16.90;58.90;97735.78;2279200;78;20914;-81
2022/09/29 11:48:52;;;;;;;4.00;3.37;;;;;;;16.75;58.98;97730.08;2278740;78;20941;-82
2022/09/29 11:51:48;;;;;;;6.22;3.40;;;;;;;16.51;58.79;97734.73;2278048;77;20926;-82
2022/09/29 11:54:48;;;;;;;5.37;3.02;;;;;;;16.23;59.46;97734.63;2279246;78;20961;-81
2022/09/29 11:57:49;;;;;;;5.45;3.17;;;;;;;15.99;59.38;97734.00;2278955;78;20946;-81
2022/09/29 12:00:49;;;;;;;7.05;3.58;;;;;;;15.87;59.72;97733.42;2279258;78;20933;-81
2022/09/29 12:03:50;;;;;;;3.50;3.20;;;;;;;15.83;60.40;97738.36;2279431;78;20918;-81
2022/09/29 12:06:53;;;;;;;3.35;3.05;;;;;;;15.84;60.74;97738.77;2279535;78;20965;-81
2022/09/29 12:09:54;;;;;;;7.97;3.50;;;;;;;15.84;60.37;97742.72;2257932;78;20976;-81
2022/09/29 12:12:54;;;;;;;3.42;3.12;;;;;;;15.80;60.58;97742.84;2285881;77;21006;-83
2022/09/29 12:15:55;;;;;;;3.10;2.80;;;;;;;15.70;60.18;97738.72;2288182;78;20932;-81
2022/09/29 12:18:55;;;;;;;4.70;3.20;;;;;;;15.43;60.27;97738.91;2286830;78;20962;-82
2022/09/29 12:21:55;;;;;;;3.98;2.83;;;;;;;15.34;60.38;97741.77;2285935;78;20927;-80
2022/09/29 12:24:56;;;;;;;13.68;3.90;;;;;;;15.35;60.61;97742.19;2286714;78;20968;-79
2022/09/29 12:27:56;;;;;;;5.33;4.10;;;;;;;15.38;60.91;97747.36;2286786;78;20972;-82
2022/09/29 12:30:57;;;;;;;4.47;3.62;;;;;;;15.36;57.98;97753.11;2286877;78;20959;-81
2022/09/29 12:33:57;;;;;;;11.80;4.33;;;;;;;15.14;60.08;97747.52;2287865;78;20927;-80
2022/09/29 12:37:01;;;;;;;5.17;3.85;;;;;;;15.26;60.37;97755.97;2288011;78;20968;-82
2022/09/29 12:39:59;;;;;;;4.03;3.62;;;;;;;15.37;60.17;97752.21;2288212;78;20948;-82
2022/09/29 12:42:58;;;;;;;4.35;3.25;;;;;;;15.25;59.60;97754.69;2287133;78;20967;-78
2022/09/29 12:45:59;;;;;;;6.22;3.33;;;;;;;15.04;59.97;97753.88;2289695;78;20948;-83
2022/09/29 12:48:59;;;;;;;3.87;3.20;;;;;;;14.95;61.03;97758.90;2287643;78;20983;-78
2022/09/29 12:52:00;;;;;;;6.65;2.77;;;;;;;14.96;59.18;97754.06;2288652;78;20927;-84
2022/09/29 12:55:00;;;;;;;6.25;2.75;;;;;;;14.86;59.40;97754.72;2289140;78;20889;-82
2022/09/29 12:58:00;;;;;;;11.93;4.03;;;;;;;14.84;59.41;97751.71;2289335;78;20911;-83
2022/09/29 13:01:01;;;;;;;3.92;2.95;;;;;;;14.89;59.54;97755.97;2289273;78;20912;-82
2022/09/29 13:04:02;;;;;;;2.42;1.87;;;;;;;14.95;59.89;97753.64;2288754;78;20908;-83
2022/09/29 13:07:02;;;;;;;40.05;4.92;;;;;;;14.99;59.93;97755.30;2288498;78;20912;-83
2022/09/29 13:10:02;;;;;;;9.73;2.77;;;;;;;14.98;60.29;97762.77;2287706;78;20936;-83
2022/09/29 13:13:02;;;;;;;3.58;2.60;;;;;;;14.98;59.77;97767.58;2279971;78;20946;-83
2022/09/29 13:16:03;;;;;;;4.30;2.20;;;;;;;14.98;59.81;97767.58;2278972;78;20953;-82
2022/09/29 13:19:03;;;;;;;13.93;5.05;;;;;;;15.00;60.58;97770.17;2277792;78;20938;-83
2022/09/29 13:22:05;;;;;;;3.75;2.52;;;;;;;14.92;60.04;97772.11;2278131;78;20911;-83
2022/09/29 13:25:04;;;;;;;3.00;2.70;;;;;;;14.82;60.05;97775.84;2278162;78;20914;-81
2022/09/29 13:28:04;;;;;;;5.65;2.62;;;;;;;14.79;60.12;97773.28;2276951;78;21380;-81
2022/09/29 13:31:05;;;;;;;4.28;3.35;;;;;;;14.80;60.92;97773.24;2277613;78;20910;-82
2022/09/29 13:34:05;;;;;;;2.62;2.37;;;;;;;14.81;60.85;97776.73;2278705;78;20899;-83
2022/09/29 13:37:06;;;;;;;2.87;2.22;;;;;;;14.75;61.94;97772.93;2280181;78;20918;-83
2022/09/29 13:40:07;;;;;;;3.42;2.72;;;;;;;14.72;62.17;97776.91;2281834;78;20957;-84
2022/09/29 13:43:07;;;;;;;3.75;2.22;;;;;;;14.69;62.36;97778.28;2281338;77;21001;-82
2022/09/29 13:46:07;;;;;;;5.83;2.30;;;;;;;14.68;63.46;97777.87;2280646;77;20941;-82
2022/09/29 13:49:07;;;;;;;4.00;2.83;;;;;;;14.72;63.78;97771.20;2280918;78;21612;-81
2022/09/29 13:52:08;;;;;;;5.97;2.80;;;;;;;14.71;62.44;97773.41;2280691;77;21074;-82
2022/09/29 13:55:08;;;;;;;5.97;2.35;;;;;;;14.70;62.38;97775.63;2281301;78;20890;-83
2022/09/29 13:58:09;;;;;;;8.38;3.00;;;;;;;14.71;62.21;97783.05;2280632;78;20974;-82
2022/09/29 14:01:09;;;;;;;11.55;2.65;;;;;;;14.69;61.52;97783.09;2279971;78;20922;-79
2022/09/29 14:04:10;;;;;;;4.10;2.50;;;;;;;14.66;61.78;97785.78;2280649;78;20941;-82
2022/09/29 14:07:10;;;;;;;28.35;3.70;;;;;;;14.64;62.20;97789.75;2280284;78;21684;-82
2022/09/29 14:10:10;;;;;;;6.97;2.80;;;;;;;14.63;62.44;97795.91;2279227;78;21417;-81